Other Surface Observations
Issued by NWS Great Falls, MT

Home | Current Version | Previous Version | Text Only | Print | Product List | Glossary On
Versions: 1 2 3 4 5 6 7 8 9 10 11 12 13 14 15 16 17 18 19 20 21 22 23 24 25 26 27 28 29 30 31 32 33 34 35 36 37 38 39 40 41 42 43 44 45 46 47 48 49 50
176
SXUS55 KTFX 021518
OSOTFX

AREA AWOS OBSERVATIONS
NATIONAL WEATHER SERVICE GREAT FALLS MT
0918 AM MDT Mon May 02 2016

METAR K7S0 021515Z AUTO 00000KT 10SM 12/06 A3022
METAR KRPX 021515Z AUTO 20005KT 10SM 09/01 A3009
METAR KS01 021455Z AUTO 00000KT 10SM 11/07 A3019



USA.gov is the U.S. government's official web portal to all federal, state and local government web resources and services.